createdAt,value
2018-09-25T00:01:46.878Z,4.90
2018-09-25T00:04:19.601Z,4.08
2018-09-25T00:06:52.746Z,5.90
2018-09-25T00:09:25.875Z,4.40
2018-09-25T00:11:58.763Z,4.20
2018-09-25T00:14:31.492Z,4.72
2018-09-25T00:17:04.206Z,3.95
2018-09-25T00:19:37.123Z,4.55
2018-09-25T00:22:09.954Z,4.92
2018-09-25T00:24:43.543Z,3.67
2018-09-25T00:27:16.527Z,3.90
2018-09-25T00:29:49.611Z,5.47
2018-09-25T00:32:22.435Z,3.70
2018-09-25T00:34:55.214Z,3.40
2018-09-25T00:37:27.923Z,3.85
2018-09-25T00:40:00.563Z,4.00
2018-09-25T00:42:33.675Z,3.98
2018-09-25T00:45:06.534Z,3.85
2018-09-25T00:47:39.212Z,3.65
2018-09-25T00:50:11.861Z,3.70
2018-09-25T00:52:44.472Z,3.90
2018-09-25T00:55:17.425Z,4.50
2018-09-25T00:57:50.232Z,3.90
2018-09-25T01:00:22.887Z,3.75
2018-09-25T01:02:55.847Z,3.77
2018-09-25T01:05:28.680Z,4.37
2018-09-25T01:08:01.646Z,4.67
2018-09-25T01:10:34.594Z,4.28
2018-09-25T01:13:07.332Z,4.12
2018-09-25T01:15:40.181Z,4.80
2018-09-25T01:18:13.491Z,4.00
2018-09-25T01:20:46.157Z,4.05
2018-09-25T01:23:19.512Z,3.90
2018-09-25T01:25:52.339Z,3.90
2018-09-25T01:28:25.082Z,4.67
2018-09-25T01:30:57.763Z,3.47
2018-09-25T01:33:30.588Z,3.87
2018-09-25T01:36:03.281Z,3.50
2018-09-25T01:38:36.003Z,3.92
2018-09-25T01:41:08.714Z,4.50
2018-09-25T01:43:41.407Z,3.80
2018-09-25T01:46:14.211Z,4.33
2018-09-25T01:48:46.968Z,4.85
2018-09-25T01:51:19.641Z,3.83
2018-09-25T01:53:52.527Z,4.62
2018-09-25T01:56:25.632Z,4.17
2018-09-25T01:58:58.705Z,5.17
2018-09-25T02:01:31.453Z,4.72
2018-09-25T02:04:04.416Z,4.22
2018-09-25T02:06:37.081Z,4.10
2018-09-25T02:09:10.654Z,4.67
2018-09-25T02:11:43.609Z,4.75
2018-09-25T02:14:16.346Z,4.30
2018-09-25T02:16:49.143Z,4.45
2018-09-25T02:19:22.159Z,4.65
2018-09-25T02:21:54.800Z,4.87
2018-09-25T02:24:27.830Z,4.42
2018-09-25T02:27:00.445Z,4.45
2018-09-25T02:29:33.234Z,4.85
2018-09-25T02:32:06.468Z,4.10
2018-09-25T02:34:39.331Z,4.35
2018-09-25T02:37:12.110Z,4.35
2018-09-25T02:39:44.778Z,3.77
2018-09-25T02:42:17.483Z,5.50
2018-09-25T02:44:51.064Z,6.30
2018-09-25T02:47:23.701Z,5.25
2018-09-25T02:49:56.554Z,4.60
2018-09-25T02:52:29.319Z,4.53
2018-09-25T02:55:02.025Z,4.67
2018-09-25T02:57:34.973Z,4.40
2018-09-25T03:00:07.895Z,4.85
2018-09-25T03:02:40.718Z,4.60
2018-09-25T03:05:14.083Z,4.80
2018-09-25T03:07:46.771Z,4.60
2018-09-25T03:10:19.403Z,4.42
2018-09-25T03:12:52.150Z,4.70
2018-09-25T03:15:25.217Z,5.12
2018-09-25T03:17:58.064Z,5.12
2018-09-25T03:20:30.656Z,4.22
2018-09-25T03:23:04.369Z,5.53
2018-09-25T03:25:37.238Z,7.10
2018-09-25T03:28:09.930Z,5.42
2018-09-25T03:30:42.544Z,5.53
2018-09-25T03:33:15.278Z,5.90
2018-09-25T03:35:48.132Z,4.75
2018-09-25T03:38:20.972Z,5.83
2018-09-25T03:40:53.652Z,5.05
2018-09-25T03:43:26.408Z,4.58
2018-09-25T03:45:59.174Z,4.40
2018-09-25T03:48:32.055Z,5.20
2018-09-25T03:51:04.795Z,5.97
2018-09-25T03:53:37.603Z,5.65
2018-09-25T03:56:10.623Z,5.87
2018-09-25T03:58:43.317Z,5.05
2018-09-25T04:01:16.395Z,5.10
2018-09-25T04:03:49.264Z,5.53
2018-09-25T04:06:22.047Z,5.05
2018-09-25T04:08:55.047Z,5.12
2018-09-25T04:11:27.741Z,5.40
2018-09-25T04:14:00.667Z,5.47
2018-09-25T04:16:33.304Z,4.75
2018-09-25T04:19:06.159Z,6.28
2018-09-25T04:21:39.025Z,5.42
2018-09-25T04:24:11.802Z,5.55
2018-09-25T04:26:44.510Z,4.85
2018-09-25T04:29:17.407Z,5.28
2018-09-25T04:31:50.451Z,5.90
2018-09-25T04:34:23.163Z,6.15
2018-09-25T04:36:56.135Z,5.95
2018-09-25T04:39:29.044Z,5.70
2018-09-25T04:42:01.913Z,5.12
2018-09-25T04:44:34.672Z,5.37
2018-09-25T04:47:07.453Z,5.60
2018-09-25T04:49:40.567Z,5.65
2018-09-25T04:52:13.435Z,5.85
2018-09-25T04:54:47.766Z,5.22
2018-09-25T04:57:20.918Z,6.47
2018-09-25T04:59:53.959Z,5.30
2018-09-25T05:02:27.130Z,6.05
2018-09-25T05:05:00.028Z,6.40
2018-09-25T05:07:32.953Z,6.17
2018-09-25T05:10:05.812Z,6.20
2018-09-25T05:12:38.744Z,5.40
2018-09-25T05:15:12.226Z,7.17
2018-09-25T05:17:45.274Z,6.78
2018-09-25T05:20:18.187Z,6.40
2018-09-25T05:22:51.043Z,6.25
2018-09-25T05:25:23.940Z,6.53
2018-09-25T05:27:56.638Z,6.35
2018-09-25T05:30:30.518Z,6.00
2018-09-25T05:33:03.455Z,6.10
2018-09-25T05:35:36.283Z,6.45
2018-09-25T05:38:08.982Z,7.08
2018-09-25T05:40:41.723Z,6.80
2018-09-25T05:43:14.662Z,6.00
2018-09-25T05:45:47.308Z,6.50
2018-09-25T05:48:20.135Z,5.92
2018-09-25T05:50:53.002Z,7.95
2018-09-25T05:53:25.834Z,6.40
2018-09-25T05:55:58.790Z,5.30
2018-09-25T05:58:31.829Z,5.58
2018-09-25T06:01:04.911Z,6.33
2018-09-25T06:03:38.415Z,6.00
2018-09-25T06:06:11.416Z,5.40
2018-09-25T06:08:44.289Z,5.60
2018-09-25T06:11:17.179Z,5.95
2018-09-25T06:13:49.797Z,8.00
2018-09-25T06:16:22.571Z,5.90
2018-09-25T06:18:55.356Z,5.95
2018-09-25T06:21:28.306Z,5.58
2018-09-25T06:24:00.999Z,6.00
2018-09-25T06:26:33.624Z,5.55
2018-09-25T06:29:06.328Z,5.60
2018-09-25T06:31:39.079Z,4.97
2018-09-25T06:34:11.738Z,5.60
2018-09-25T06:36:44.382Z,5.35
2018-09-25T06:39:17.074Z,5.67
2018-09-25T06:41:49.844Z,5.28
2018-09-25T06:44:22.540Z,5.55
2018-09-25T06:46:55.299Z,5.22
2018-09-25T06:49:27.958Z,4.87
2018-09-25T06:52:00.791Z,4.22
2018-09-25T06:54:33.401Z,4.20
2018-09-25T06:57:06.287Z,5.95
2018-09-25T06:59:39.083Z,5.17
2018-09-25T07:02:11.984Z,5.40
2018-09-25T07:04:44.654Z,5.05
2018-09-25T07:07:17.325Z,4.72
2018-09-25T07:09:50.539Z,3.95
2018-09-25T07:12:23.494Z,4.47
2018-09-25T07:14:56.579Z,4.35
2018-09-25T07:17:29.483Z,4.53
2018-09-25T07:20:02.389Z,4.93
2018-09-25T07:22:35.278Z,4.83
2018-09-25T07:25:08.234Z,4.60
2018-09-25T07:27:40.934Z,4.40
2018-09-25T07:30:13.891Z,4.67
2018-09-25T07:32:46.637Z,4.70
2018-09-25T07:35:19.290Z,4.33
2018-09-25T07:37:52.224Z,4.17
2018-09-25T07:40:25.327Z,4.60
2018-09-25T07:42:58.161Z,4.20
2018-09-25T07:45:30.896Z,3.77
2018-09-25T07:48:03.568Z,4.73
2018-09-25T07:50:36.174Z,4.83
2018-09-25T07:53:09.036Z,5.70
2018-09-25T07:55:41.841Z,4.37
2018-09-25T07:58:14.711Z,4.53
2018-09-25T08:00:47.531Z,3.83
2018-09-25T08:03:20.231Z,4.30
2018-09-25T08:05:53.661Z,4.27
2018-09-25T08:08:26.818Z,4.30
2018-09-25T08:10:59.503Z,4.80
2018-09-25T08:13:32.327Z,4.30
2018-09-25T08:16:05.054Z,4.13
2018-09-25T08:18:38.167Z,4.50
2018-09-25T08:21:10.938Z,3.57
2018-09-25T08:23:43.758Z,4.17
2018-09-25T08:26:16.560Z,4.10
2018-09-25T08:28:49.360Z,3.67
2018-09-25T08:31:22.295Z,3.40
2018-09-25T08:33:55.139Z,3.53
2018-09-25T08:36:27.778Z,3.90
2018-09-25T08:39:00.517Z,4.17
2018-09-25T08:41:33.272Z,4.20
2018-09-25T08:44:06.076Z,4.23
2018-09-25T08:46:38.945Z,4.43
2018-09-25T08:49:11.655Z,4.30
2018-09-25T08:51:44.857Z,4.93
2018-09-25T08:54:17.665Z,4.33
2018-09-25T08:56:50.372Z,4.00
2018-09-25T08:59:23.143Z,4.30
2018-09-25T09:01:56.241Z,4.53
2018-09-25T09:04:29.200Z,4.00
2018-09-25T09:07:02.852Z,3.87
2018-09-25T09:09:35.843Z,3.87
2018-09-25T09:12:09.463Z,4.43
2018-09-25T09:14:42.712Z,4.43
2018-09-25T09:17:15.831Z,3.93
2018-09-25T09:19:48.599Z,4.40
2018-09-25T09:22:21.733Z,3.90
2018-09-25T09:24:54.687Z,4.27
2018-09-25T09:27:27.848Z,4.07
2018-09-25T09:30:00.868Z,4.00
2018-09-25T09:32:33.980Z,4.60
2018-09-25T09:35:07.080Z,3.83
2018-09-25T09:37:40.499Z,4.00
2018-09-25T09:40:13.421Z,3.37
2018-09-25T09:42:46.645Z,3.87
2018-09-25T09:45:19.445Z,3.87
2018-09-25T09:47:52.495Z,4.40
2018-09-25T09:50:25.639Z,3.80
2018-09-25T09:52:58.945Z,4.00
2018-09-25T09:55:31.779Z,4.20
2018-09-25T09:58:04.452Z,3.70
2018-09-25T10:00:37.166Z,3.30
2018-09-25T10:03:09.962Z,3.87
2018-09-25T10:05:42.829Z,3.80
2018-09-25T10:08:15.647Z,3.60
2018-09-25T10:10:48.315Z,3.30
2018-09-25T10:13:21.117Z,3.10
2018-09-25T10:15:53.989Z,3.20
2018-09-25T10:18:27.777Z,3.50
2018-09-25T10:21:01.688Z,3.10
2018-09-25T10:23:34.628Z,3.07
2018-09-25T10:26:07.717Z,2.90
2018-09-25T10:28:41.116Z,3.20
2018-09-25T10:31:13.829Z,3.03
2018-09-25T10:33:46.794Z,3.10
2018-09-25T10:36:19.615Z,3.17
2018-09-25T10:38:52.733Z,2.80
2018-09-25T10:41:25.593Z,3.07
2018-09-25T10:43:58.590Z,3.17
2018-09-25T10:46:31.774Z,3.10
2018-09-25T10:49:04.510Z,2.83
2018-09-25T10:51:37.166Z,2.83
2018-09-25T10:54:09.928Z,2.70
2018-09-25T10:56:42.736Z,2.50
2018-09-25T10:59:15.695Z,3.07
2018-09-25T11:01:48.463Z,2.83
2018-09-25T11:04:21.156Z,3.00
2018-09-25T11:06:53.838Z,2.63
2018-09-25T11:09:26.728Z,2.50
2018-09-25T11:12:00.511Z,1.93
2018-09-25T11:14:33.428Z,2.07
2018-09-25T11:17:06.147Z,2.20
2018-09-25T11:19:39.115Z,2.73
2018-09-25T11:22:11.790Z,2.50
2018-09-25T11:24:44.552Z,2.20
2018-09-25T11:27:17.302Z,2.67
2018-09-25T11:29:50.163Z,2.30
2018-09-25T11:32:23.915Z,2.70
2018-09-25T11:34:56.772Z,2.63
2018-09-25T11:37:29.636Z,3.70
2018-09-25T11:40:02.398Z,3.73
2018-09-25T11:42:35.078Z,7.67
2018-09-25T11:45:09.257Z,4.70
2018-09-25T11:47:42.059Z,5.13
2018-09-25T11:50:14.916Z,7.10
2018-09-25T11:52:47.829Z,2.80
2018-09-25T11:55:20.462Z,5.57
2018-09-25T11:57:53.149Z,2.77
2018-09-25T12:00:26.069Z,4.77
2018-09-25T12:02:59.300Z,3.67
2018-09-25T12:05:32.284Z,4.03
2018-09-25T12:08:05.266Z,2.37
2018-09-25T12:10:37.959Z,2.60
2018-09-25T12:13:10.882Z,2.12
2018-09-25T12:15:43.817Z,2.27
2018-09-25T12:18:16.841Z,2.33
2018-09-25T12:20:49.679Z,2.93
2018-09-25T12:23:22.550Z,2.40
2018-09-25T12:25:55.205Z,2.80
2018-09-25T12:28:28.561Z,2.37
2018-09-25T12:31:01.327Z,2.20
2018-09-25T12:33:34.398Z,2.57
2018-09-25T12:36:07.067Z,2.90
2018-09-25T12:38:39.948Z,2.90
2018-09-25T12:41:12.593Z,2.30
2018-09-25T12:43:45.390Z,2.30
2018-09-25T12:46:18.354Z,2.33
2018-09-25T12:48:51.236Z,2.47
2018-09-25T12:51:24.243Z,2.30
2018-09-25T12:53:56.938Z,2.20
2018-09-25T12:56:29.808Z,2.67
2018-09-25T12:59:02.527Z,2.63
2018-09-25T13:01:35.391Z,2.30
2018-09-25T13:04:08.202Z,2.33
2018-09-25T13:06:40.968Z,2.20
2018-09-25T13:09:14.383Z,2.30
2018-09-25T13:11:47.863Z,2.70
2018-09-25T13:14:20.686Z,2.70
2018-09-25T13:16:53.649Z,2.67
2018-09-25T13:19:26.347Z,2.40
2018-09-25T13:21:59.040Z,2.23
2018-09-25T13:24:31.809Z,2.20
2018-09-25T13:27:04.934Z,1.90
2018-09-25T13:29:37.720Z,2.30
2018-09-25T13:32:10.492Z,2.53
2018-09-25T13:34:43.401Z,2.43
2018-09-25T13:37:16.500Z,2.83
2018-09-25T13:39:49.278Z,2.53
2018-09-25T13:42:22.069Z,2.87
2018-09-25T13:44:55.011Z,2.63
2018-09-25T13:47:27.840Z,2.63
2018-09-25T13:50:00.513Z,2.50
2018-09-25T13:52:33.207Z,2.40
2018-09-25T13:55:05.994Z,2.87
2018-09-25T13:57:38.738Z,2.20
2018-09-25T14:00:11.583Z,2.55
2018-09-25T14:02:45.337Z,2.50
2018-09-25T14:05:18.126Z,2.20
2018-09-25T14:07:50.850Z,2.60
2018-09-25T14:10:23.646Z,2.40
2018-09-25T14:12:57.453Z,2.25
2018-09-25T14:15:30.387Z,2.80
2018-09-25T14:18:03.094Z,2.45
2018-09-25T14:20:35.987Z,2.40
2018-09-25T14:23:08.698Z,2.95
2018-09-25T14:25:41.846Z,2.70
2018-09-25T14:28:14.827Z,2.65
2018-09-25T14:30:48.210Z,2.85
2018-09-25T14:33:21.133Z,2.47
2018-09-25T14:35:53.907Z,2.52
2018-09-25T14:38:27.070Z,3.05
2018-09-25T14:40:59.806Z,2.83
2018-09-25T14:43:32.737Z,2.70
2018-09-25T14:46:05.739Z,2.67
2018-09-25T14:48:38.652Z,2.90
2018-09-25T14:51:11.683Z,2.45
2018-09-25T14:53:44.279Z,2.75
2018-09-25T14:56:17.587Z,2.83
2018-09-25T14:58:50.455Z,2.80
2018-09-25T15:01:23.287Z,2.72
2018-09-25T15:03:56.036Z,2.60
2018-09-25T15:06:28.789Z,3.03
2018-09-25T15:09:01.774Z,2.70
2018-09-25T15:11:34.432Z,2.70
2018-09-25T15:14:07.525Z,2.13
2018-09-25T15:16:40.601Z,2.80
2018-09-25T15:19:13.364Z,2.80
2018-09-25T15:21:46.250Z,2.50
2018-09-25T15:24:18.994Z,2.65
2018-09-25T15:26:51.735Z,3.45
2018-09-25T15:29:24.507Z,2.58
2018-09-25T15:31:57.422Z,2.20
2018-09-25T15:34:30.276Z,2.25
2018-09-25T15:37:03.113Z,2.25
2018-09-25T15:39:35.817Z,2.30
2018-09-25T15:42:08.837Z,2.40
2018-09-25T15:44:41.776Z,2.50
2018-09-25T15:47:14.854Z,2.60
2018-09-25T15:49:47.597Z,2.10
2018-09-25T15:52:20.468Z,2.22
2018-09-25T15:54:53.303Z,2.55
2018-09-25T15:57:26.213Z,3.75
2018-09-25T15:59:59.131Z,2.62
2018-09-25T16:02:33.028Z,2.58
2018-09-25T16:05:06.091Z,2.50
2018-09-25T16:07:38.957Z,2.35
2018-09-25T16:10:11.564Z,2.22
2018-09-25T16:12:44.435Z,2.17
2018-09-25T16:15:17.199Z,2.87
2018-09-25T16:17:50.045Z,2.67
2018-09-25T16:20:22.989Z,3.22
2018-09-25T16:22:56.857Z,2.40
2018-09-25T16:25:29.651Z,2.50
2018-09-25T16:28:02.754Z,2.20
2018-09-25T16:30:35.653Z,2.65
2018-09-25T16:33:08.620Z,2.45
2018-09-25T16:35:42.133Z,3.05
2018-09-25T16:38:17.218Z,3.02
2018-09-25T16:40:52.215Z,2.70
2018-09-25T16:43:26.490Z,3.00
2018-09-25T16:46:01.510Z,3.02
2018-09-25T16:48:35.572Z,2.62
2018-09-25T16:51:11.268Z,3.75
2018-09-25T16:53:45.720Z,2.75
2018-09-25T16:56:20.497Z,3.00
2018-09-25T16:58:55.716Z,3.55
2018-09-25T17:01:31.006Z,2.95
2018-09-25T17:04:05.422Z,3.20
2018-09-25T17:06:41.488Z,4.10
2018-09-25T17:09:22.522Z,3.65
2018-09-25T17:11:55.498Z,3.70
2018-09-25T17:14:29.329Z,2.80
2018-09-25T17:17:04.453Z,3.10
2018-09-25T17:19:38.351Z,2.75
2018-09-25T17:22:12.594Z,3.65
2018-09-25T17:24:48.606Z,3.35
2018-09-25T17:27:22.618Z,3.10
2018-09-25T17:29:57.390Z,4.58
2018-09-25T17:32:32.195Z,3.50
2018-09-25T17:35:07.316Z,4.33
2018-09-25T17:37:42.144Z,3.30
2018-09-25T17:40:15.090Z,3.98
2018-09-25T17:42:47.823Z,4.20
2018-09-25T17:45:20.495Z,3.47
2018-09-25T17:47:53.691Z,3.25
2018-09-25T17:50:26.481Z,3.50
2018-09-25T17:52:59.236Z,5.35
2018-09-25T17:55:32.177Z,4.72
2018-09-25T17:58:04.953Z,3.92
2018-09-25T18:00:37.823Z,4.12
2018-09-25T18:03:11.143Z,4.25
2018-09-25T18:05:44.338Z,5.15
2018-09-25T18:08:17.227Z,7.55
2018-09-25T18:10:50.397Z,8.10
2018-09-25T18:13:23.355Z,8.15
2018-09-25T18:15:56.138Z,9.20
2018-09-25T18:18:29.917Z,7.33
2018-09-25T18:21:02.887Z,7.17
2018-09-25T18:23:35.817Z,7.62
2018-09-25T18:26:08.557Z,8.35
2018-09-25T18:28:41.273Z,8.75
2018-09-25T18:31:14.293Z,9.15
2018-09-25T18:33:47.112Z,7.80
2018-09-25T18:36:19.892Z,7.47
2018-09-25T18:38:52.691Z,6.95
2018-09-25T18:41:25.697Z,7.22
2018-09-25T18:43:58.980Z,6.70
2018-09-25T18:46:31.866Z,6.25
2018-09-25T18:49:04.628Z,6.53
2018-09-25T18:51:37.345Z,6.05
2018-09-25T18:54:11.145Z,5.62
2018-09-25T18:56:44.090Z,5.58
2018-09-25T18:59:17.049Z,6.22
2018-09-25T19:01:49.803Z,5.17
2018-09-25T19:04:22.540Z,4.70
2018-09-25T19:06:55.290Z,5.60
2018-09-25T19:09:28.039Z,5.65
2018-09-25T19:12:00.942Z,5.65
2018-09-25T19:14:33.550Z,6.10
2018-09-25T19:17:06.420Z,6.08
2018-09-25T19:19:39.151Z,6.40
2018-09-25T19:22:11.978Z,7.08
2018-09-25T19:24:44.695Z,7.10
2018-09-25T19:27:17.558Z,7.55
2018-09-25T19:29:50.342Z,6.35
2018-09-25T19:32:23.098Z,6.92
2018-09-25T19:34:56.072Z,6.35
2018-09-25T19:37:28.767Z,6.95
2018-09-25T19:40:01.656Z,6.60
2018-09-25T19:42:34.320Z,6.67
2018-09-25T19:45:07.258Z,8.68
2018-09-25T19:47:40.014Z,8.18
2018-09-25T19:50:12.711Z,8.05
2018-09-25T19:52:45.342Z,7.83
2018-09-25T19:55:18.287Z,7.60
2018-09-25T19:57:50.984Z,7.00
2018-09-25T20:00:23.841Z,6.97
2018-09-25T20:02:56.671Z,6.55
2018-09-25T20:05:29.466Z,6.53
2018-09-25T20:08:02.124Z,6.42
2018-09-25T20:10:34.839Z,6.97
2018-09-25T20:13:08.376Z,7.05
2018-09-25T20:15:41.222Z,7.03
2018-09-25T20:18:14.794Z,6.33
2018-09-25T20:20:47.628Z,6.65
2018-09-25T20:23:22.624Z,6.50
2018-09-25T20:25:55.652Z,5.53
2018-09-25T20:28:29.650Z,9.83
2018-09-25T20:31:02.968Z,7.85
2018-09-25T20:33:35.913Z,6.62
2018-09-25T20:36:15.474Z,6.30
2018-09-25T20:38:48.493Z,7.60
2018-09-25T20:41:21.165Z,6.78
2018-09-25T20:43:53.929Z,6.80
2018-09-25T20:46:27.005Z,7.72
2018-09-25T20:48:59.890Z,6.25
2018-09-25T20:51:32.547Z,6.65
2018-09-25T20:54:05.440Z,7.25
2018-09-25T20:56:38.484Z,6.70
2018-09-25T20:59:11.673Z,7.40
2018-09-25T21:01:44.684Z,6.75
2018-09-25T21:04:17.450Z,6.87
2018-09-25T21:06:50.257Z,6.85
2018-09-25T21:09:23.095Z,6.20
2018-09-25T21:11:56.068Z,5.85
2018-09-25T21:14:29.060Z,5.78
2018-09-25T21:17:03.072Z,5.80
2018-09-25T21:19:36.009Z,7.72
2018-09-25T21:22:08.798Z,6.20
2018-09-25T21:24:41.622Z,5.62
2018-09-25T21:27:14.547Z,5.35
2018-09-25T21:29:47.232Z,6.17
2018-09-25T21:32:21.148Z,5.47
2018-09-25T21:34:53.906Z,5.85
2018-09-25T21:37:27.133Z,5.90
2018-09-25T21:39:59.824Z,7.70
2018-09-25T21:42:32.902Z,6.33
2018-09-25T21:45:05.872Z,6.65
2018-09-25T21:47:38.603Z,6.45
2018-09-25T21:50:11.665Z,8.90
2018-09-25T21:52:44.382Z,7.35
2018-09-25T21:55:17.092Z,6.60
2018-09-25T21:57:50.069Z,8.03
2018-09-25T22:00:23.031Z,6.67
2018-09-25T22:02:55.697Z,7.60
2018-09-25T22:05:28.742Z,7.42
2018-09-25T22:08:01.474Z,8.98
2018-09-25T22:10:34.227Z,6.78
2018-09-25T22:13:06.914Z,5.80
2018-09-25T22:15:39.702Z,5.78
2018-09-25T22:18:12.397Z,5.80
2018-09-25T22:20:45.230Z,7.10
2018-09-25T22:23:18.163Z,8.08
2018-09-25T22:25:51.099Z,10.15
2018-09-25T22:28:23.992Z,12.20
2018-09-25T22:30:56.660Z,6.92
2018-09-25T22:33:29.562Z,6.50
2018-09-25T22:36:02.252Z,5.75
2018-09-25T22:38:34.931Z,5.22
2018-09-25T22:41:07.538Z,5.53
2018-09-25T22:43:40.401Z,5.40
2018-09-25T22:46:13.134Z,4.83
2018-09-25T22:48:45.875Z,5.10
2018-09-25T22:51:18.905Z,4.85
2018-09-25T22:53:51.583Z,4.15
2018-09-25T22:56:25.107Z,6.10
2018-09-25T22:58:58.028Z,4.15
2018-09-25T23:01:30.817Z,5.08
2018-09-25T23:04:03.851Z,5.15
2018-09-25T23:06:36.774Z,4.35
2018-09-25T23:09:11.306Z,4.85
2018-09-25T23:11:44.174Z,4.95
2018-09-25T23:14:16.866Z,5.20
2018-09-25T23:16:49.993Z,5.17
2018-09-25T23:19:22.658Z,6.00
2018-09-25T23:21:55.804Z,7.05
2018-09-25T23:24:28.673Z,6.42
2018-09-25T23:27:01.415Z,7.22
2018-09-25T23:29:34.084Z,7.30
2018-09-25T23:32:06.754Z,7.00
2018-09-25T23:34:39.409Z,10.50
2018-09-25T23:37:12.207Z,8.95
2018-09-25T23:39:50.199Z,6.30
2018-09-25T23:42:22.183Z,8.65
2018-09-25T23:44:54.806Z,9.30
2018-09-25T23:47:27.567Z,9.90
2018-09-25T23:50:01.562Z,7.72
2018-09-25T23:52:33.171Z,5.80
2018-09-25T23:55:05.950Z,6.28
2018-09-25T23:57:37.191Z,6.60
